• Join FlightAware (Why Join?)
  • Login
  • US Flag 
10:07PM EDT


 

Airport Tracker/Info


-or-


 

Live Flight TrackerFlight Track Log ✈ N44EV ✈ 25-Apr-2012 ✈ PANC - PADK

Flight Track Log - Related Links

Times and Time Zones

All times are in EDT time to prevent confusion due to time zone crossing. See the N44EV flight status page for this flight to view local times or setup timezone preferences in your user account.

Time Position Orientation Groundspeed Altitude Reporting Facility
EDT Latitude Longitude Course Direction KTS MPH feet Rate Location/Type
01:54PM 61.0947 -150.2161 194° South  Level FlightAware Approximate
01:55PM 61.0364 -150.3977 164° South  Level FlightAware Approximate
01:56PM 60.9772 -150.5774 121° Southeast  Level FlightAware Approximate
01:56PM 60.9000 -150.3167 246° West 310 357 12,000  Level Anchorage Center
01:57PM 60.8667 -150.4667 238° Southwest 310 357 15,600 3,300 Climbing Anchorage Center
01:58PM 60.8167 -150.6333 238° Southwest 330 380 18,700 2,640 Climbing Anchorage Center
01:59PM 60.7667 -150.8000 241° Southwest 340 391 21,000 1,980 Climbing Anchorage Center
02:00PM 60.7167 -150.9833 233° Southwest 380 437 22,800 2,400 Climbing Anchorage Center
02:01PM 60.6500 -151.1667 243° Southwest 400 460 25,900 2,400 Climbing Anchorage Center
02:02PM 60.6000 -151.3667 236° Southwest 370 426 27,700 1,140 Climbing Anchorage Center
02:03PM 60.5333 -151.5667 236° Southwest 400 460 28,300 1,260 Climbing Anchorage Center
02:04PM 60.4667 -151.7667 243° Southwest 410 472 30,300 1,680 Climbing Anchorage Center
02:05PM 60.4167 -151.9667 234° Southwest 410 472 31,700 1,020 Climbing Anchorage Center
02:06PM 60.3500 -152.1500 236° Southwest 410 472 32,400 840 Climbing Anchorage Center
02:07PM 60.2833 -152.3500 234° Southwest 410 472 33,400 900 Climbing Anchorage Center
02:08PM 60.2167 -152.5333 243° Southwest 410 472 34,300 540 Climbing Anchorage Center
02:10PM 60.1667 -152.7333 234° Southwest 410 472 34,600 420 Climbing Anchorage Center
02:11PM 60.1000 -152.9167 236° Southwest 400 460 35,200 480 Climbing Anchorage Center
02:12PM 60.0333 -153.1167 234° Southwest 420 483 35,600 360 Climbing Anchorage Center
02:13PM 59.9667 -153.3000 234° Southwest 410 472 36,000 180 Climbing Anchorage Center
02:14PM 59.9000 -153.4833 237° Southwest 410 472 36,000  Level Anchorage Center
02:15PM 59.8333 -153.6833 234° Southwest 420 483 36,000  Level Anchorage Center
02:16PM 59.7667 -153.8667 237° Southwest 420 483 36,000  Level Anchorage Center
02:17PM 59.7000 -154.0667 234° Southwest 420 483 36,000  Level Anchorage Center
02:18PM 59.6333 -154.2500 231° Southwest 410 472 36,000  Level Anchorage Center
02:19PM 59.5500 -154.4500 234° Southwest 420 483 36,000  Level Anchorage Center
02:20PM 59.4833 -154.6333 234° Southwest 420 483 36,000  Level Anchorage Center
02:21PM 59.4167 -154.8167 235° Southwest 410 472 36,000  Level Anchorage Center
02:22PM 59.3500 -155.0000 242° Southwest 400 460 36,000  Level Anchorage Center
02:23PM 59.3000 -155.1833 235° Southwest 400 460 36,000  Level Anchorage Center
02:24PM 59.2333 -155.3667 232° Southwest 410 472 36,000  Level Anchorage Center
02:25PM 59.1667 -155.5333 235° Southwest 400 460 36,000  Level Anchorage Center
02:26PM 59.1000 -155.7167 235° Southwest 400 460 36,000  Level Anchorage Center
02:27PM 59.0333 -155.9000 235° Southwest 400 460 36,000  Level Anchorage Center
02:28PM 58.9667 -156.0833 232° Southwest 400 460 36,000  Level Anchorage Center
02:29PM 58.9000 -156.2500 235° Southwest 410 472 36,000  Level Anchorage Center
02:30PM 58.8333 -156.4333 231° Southwest 400 460 36,000  Level Anchorage Center
02:31PM 58.7500 -156.6333 235° Southwest 430 495 36,000  Level Anchorage Center
02:32PM 58.6833 -156.8167 233° Southwest 400 460 36,000  Level Anchorage Center
02:33PM 58.6167 -156.9833 226° Southwest 390 449 36,000  Level Anchorage Center
02:34PM 58.5333 -157.1500 223° Southwest 410 472 36,000  Level Anchorage Center
02:35PM 58.4500 -157.3000 223° Southwest 410 472 36,000  Level Anchorage Center
02:36PM 58.3667 -157.4500 223° Southwest 420 483 36,000  Level Anchorage Center
02:37PM 58.2833 -157.6000 224° Southwest 410 472 36,000  Level Anchorage Center
02:38PM 58.2000 -157.7500 224° Southwest 410 472 36,000  Level Anchorage Center
02:39PM 58.1167 -157.9000 224° Southwest 410 472 36,000 180 Level Anchorage Center
02:40PM 58.0333 -158.0500 220° Southwest 410 472 36,400 480 Climbing Anchorage Center
02:41PM 57.9500 -158.1833 224° Southwest 390 449 37,000 540 Climbing Anchorage Center
02:42PM 57.8667 -158.3333 230° Southwest 390 449 37,500 300 Climbing Anchorage Center
02:43PM 57.8000 -158.4833 224° Southwest 390 449 37,700 240 Climbing Anchorage Center
02:44PM 57.7167 -158.6333 224° Southwest 390 449 38,000 120 Climbing Anchorage Center
02:45PM 57.6333 -158.7833 227° Southwest 390 449 38,000  Level Anchorage Center
02:46PM 57.5667 -158.9167 227° Southwest 390 449 38,000  Level Anchorage Center
02:47PM 57.4833 -159.0833 221° Southwest 410 472 38,000  Level Anchorage Center
02:48PM 57.4000 -159.2167 224° Southwest 390 449 38,000  Level Anchorage Center
02:49PM 57.3167 -159.3667 221° Southwest 400 460 38,000  Level Anchorage Center
02:50PM 57.2333 -159.5000 231° Southwest 380 437 38,000  Level Anchorage Center
02:51PM 57.1667 -159.6500 216° Southwest 390 449 38,000  Level Anchorage Center
02:52PM 57.0667 -159.7833 231° Southwest 400 460 38,000  Level Anchorage Center
02:53PM 57.0000 -159.9333 221° Southwest 400 460 38,000  Level Anchorage Center
02:54PM 56.9167 -160.0667 225° Southwest 400 460 38,000  Level Anchorage Center
02:55PM 56.8333 -160.2167 221° Southwest 400 460 38,000  Level Anchorage Center
02:56PM 56.7500 -160.3500 221° Southwest 390 449 38,000  Level Anchorage Center
02:57PM 56.6667 -160.4833 221° Southwest 390 449 38,000  Level Anchorage Center
02:58PM 56.5833 -160.6167 221° Southwest 400 460 38,000  Level Anchorage Center
02:59PM 56.5000 -160.7500 222° Southwest 390 449 38,000  Level Anchorage Center
03:00PM 56.4167 -160.8833 228° Southwest 390 449 38,000  Level Anchorage Center
03:01PM 56.3500 -161.0167 222° Southwest 390 449 38,000  Level Anchorage Center
03:02PM 56.2667 -161.1500 222° Southwest 390 449 38,000  Level Anchorage Center
03:03PM 56.1833 -161.2833 228° Southwest 390 449 38,000  Level Anchorage Center
03:04PM 56.1167 -161.4167 222° Southwest 380 437 38,000  Level Anchorage Center
03:05PM 56.0333 -161.5500 222° Southwest 380 437 38,000  Level Anchorage Center
03:06PM 55.9500 -161.6833 228° Southwest 380 437 38,000  Level Anchorage Center
03:07PM 55.8833 -161.8167 218° Southwest 370 426 38,000  Level Anchorage Center
03:08PM 55.8000 -161.9333 222° Southwest 370 426 38,000  Level Anchorage Center
03:09PM 55.7167 -162.0667 225° Southwest 380 437 38,000  Level Anchorage Center
03:10PM 55.6500 -162.1833 218° Southwest 370 426 38,000  Level Anchorage Center
03:11PM 55.5667 -162.3000 222° Southwest 370 426 38,000  Level Anchorage Center
03:12PM 55.4833 -162.4333 225° Southwest 370 426 38,000  Level Anchorage Center
03:13PM 55.4167 -162.5500 219° Southwest 360 414 38,000  Level Anchorage Center
03:14PM 55.3333 -162.6667 222° Southwest 370 426 38,000  Level Anchorage Center
03:15PM 55.2500 -162.8000 252° West 340 391 38,000  Level Anchorage Center
03:16PM 55.2167 -162.9833 225° Southwest 370 426 38,000  Level Anchorage Center
03:17PM 55.1500 -163.1000 242° Southwest 350 403 38,000  Level Anchorage Center
03:18PM 55.1000 -163.2667 237° Southwest 340 391 38,000  Level Anchorage Center
03:19PM 55.0500 -163.4000 240° Southwest 360 414 38,000  Level Anchorage Center
03:20PM 55.0000 -163.5500 240° Southwest 340 391 38,000  Level Anchorage Center
03:21PM 54.9500 -163.7000 240° Southwest 350 403 38,000  Level Anchorage Center
03:22PM 54.9000 -163.8500 240° Southwest 350 403 38,000  Level Anchorage Center
03:23PM 54.8500 -164.0000 229° Southwest 350 403 38,000  Level Anchorage Center
03:24PM 54.7833 -164.1333 240° Southwest 350 403 38,000  Level Anchorage Center
03:25PM 54.7333 -164.2833 240° Southwest 360 414 38,000  Level Anchorage Center
03:26PM 54.6833 -164.4333 240° Southwest 350 403 38,000  Level Anchorage Center
03:27PM 54.6333 -164.5833 240° Southwest 350 403 38,000  Level Anchorage Center
03:28PM 54.5833 -164.7333 238° Southwest 350 403 38,000  Level Anchorage Center
03:30PM 54.4667 -165.0500 244° Southwest 360 414 38,000  Level Anchorage Center
03:31PM 54.4333 -165.1667 233° Southwest 360 414 38,000  Level Anchorage Center
03:32PM 54.3667 -165.3167 240° Southwest 360 414 38,000  Level Anchorage Center
03:33PM 54.3167 -165.4667 240° Southwest 360 414 38,000  Level Anchorage Center
03:34PM 54.2667 -165.6167 240° Southwest 370 426 38,000  Level Anchorage Center
03:35PM 54.2167 -165.7667 234° Southwest 370 426 38,000  Level Anchorage Center
03:37PM 54.0833 -166.0833 240° Southwest 360 414 38,000  Level Anchorage Center
03:38PM 54.0333 -166.2333 230° Southwest 370 426 38,000  Level Anchorage Center
03:39PM 53.9667 -166.3667 241° Southwest 350 403 38,000  Level Anchorage Center
03:40PM 53.9167 -166.5167 249° West 360 414 38,000  Level Anchorage Center
03:41PM 53.8833 -166.6667 261° West 360 414 38,000  Level Anchorage Center
03:42PM 53.8667 -166.8500 251° West 380 437 38,000  Level Anchorage Center
03:43PM 53.8333 -167.0167 251° West 370 426 38,000  Level Anchorage Center
03:44PM 53.8000 -167.1833 260° West 360 414 38,000  Level Anchorage Center
03:45PM 53.7833 -167.3500 251° West 380 437 38,000  Level Anchorage Center
03:46PM 53.7500 -167.5167 251° West 370 426 38,000  Level Anchorage Center
03:47PM 53.7167 -167.6833 261° West 350 403 38,000  Level Anchorage Center
03:48PM 53.7000 -167.8667 251° West 380 437 38,000  Level Anchorage Center
03:49PM 53.6667 -168.0333 261° West 390 449 38,000  Level Anchorage Center
03:50PM 53.6500 -168.2167 243° Southwest 370 426 38,000  Level Anchorage Center
03:51PM 53.6000 -168.3833 261° West 370 426 38,000  Level Anchorage Center
03:52PM 53.5833 -168.5500 250° West 370 426 38,000  Level Anchorage Center
03:53PM 53.5500 -168.7000 254° West 370 426 38,000  Level Anchorage Center
03:54PM 53.5167 -168.9000 261° West 400 460 38,000  Level Anchorage Center
03:55PM 53.5000 -169.0667 251° West 400 460 38,000  Level Anchorage Center
03:56PM 53.4667 -169.2333 253° West 390 449 38,000  Level Anchorage Center
03:57PM 53.4333 -169.4167 253° West 380 437 38,000  Level Anchorage Center
03:58PM 53.4000 -169.6000 252° West 400 460 38,000  Level Anchorage Center
03:59PM 53.3667 -169.7667 261° West 400 460 38,000  Level Anchorage Center
04:00PM 53.3500 -169.9500 252° West 390 449 38,000  Level Anchorage Center
04:01PM 53.3167 -170.1167 253° West 390 449 38,000  Level Anchorage Center
04:02PM 53.2833 -170.3000 250° West 380 437 38,000  Level Anchorage Center
04:03PM 53.2500 -170.4500 255° West 370 426 38,000  Level Anchorage Center
04:04PM 53.2167 -170.6500 253° West 400 460 38,000  Level Anchorage Center
04:05PM 53.1833 -170.8333 243° Southwest 410 472 38,000  Level Anchorage Center
04:06PM 53.1333 -171.0000 252° West 390 449 38,000  Level Anchorage Center
04:07PM 53.1000 -171.1667 253° West 390 449 38,000  Level Anchorage Center
04:08PM 53.0667 -171.3500 252° West 410 472 38,000  Level Anchorage Center
04:17PM 52.7773 -172.7566 251° West  Level FlightAware Approximate
04:18PM 52.7426 -172.9186 245° Southwest  Level FlightAware Approximate
04:19PM 52.6989 -173.0727 251° West  Level FlightAware Approximate
04:20PM 52.6643 -173.2344 250° West  Level FlightAware Approximate
04:21PM 52.6294 -173.3959 250° West  Level FlightAware Approximate
04:22PM 52.5943 -173.5571 250° West  Level FlightAware Approximate
04:23PM 52.5590 -173.7181 250° West  Level FlightAware Approximate
04:24PM 52.5234 -173.8788 256° West  Level FlightAware Approximate
04:25PM 52.4977 -174.0434 249° West  Level FlightAware Approximate
04:26PM 52.4611 -174.2033 249° West  Level FlightAware Approximate
04:27PM 52.4243 -174.3628 249° West  Level FlightAware Approximate
04:28PM 52.3865 -174.5215 249° West  Level FlightAware Approximate
04:29PM 52.3493 -174.6806 247° West  Level FlightAware Approximate
04:30PM 52.3081 -174.8367 249° West  Level FlightAware Approximate
04:31PM 52.2709 -174.9955 249° West  Level FlightAware Approximate
04:32PM 52.2334 -175.1540 249° West  Level FlightAware Approximate
04:33PM 52.1958 -175.3122 248° West  Level FlightAware Approximate
04:34PM 52.1571 -175.4695 249° West  Level FlightAware Approximate
04:35PM 52.1191 -175.6273 248° West  Level FlightAware Approximate
04:36PM 52.0801 -175.7834 249° West  Level FlightAware Approximate
04:37PM 52.0420 -175.9408 253° West  Level FlightAware Approximate
04:38PM 52.0109 -176.1010 247° West  Level FlightAware Approximate
04:39PM 51.9698 -176.2560 246° West  Level FlightAware Approximate
04:40PM 51.9272 -176.4080 247° West  Level FlightAware Approximate
04:41PM 51.8867 -176.5632 260° West  Level FlightAware Approximate
04:42PM 51.8691 -176.7292 80° East  Level Estimated
04:43PM 51.8867 -176.5632 260° West  Level Estimated
04:44PM 51.8691 -176.7292 92° East  Level Estimated
04:45PM 51.8667 -176.6333 325° Northwest  Level FlightAware Approximate
04:46PM 51.9521 -176.7295 145° Southeast  Level Estimated
04:47PM 51.8667 -176.6333 325° Northwest  Level FlightAware Approximate
04:48PM 51.9521 -176.7295 325° Northwest  Level Estimated